createdAt,value
2023-03-23T15:58:43.108Z,22.04
2023-03-23T16:01:19.711Z,21.82
2023-03-23T16:03:57.764Z,21.98
2023-03-23T16:06:27.577Z,21.49
2023-03-23T16:08:55.925Z,22.05
2023-03-23T16:11:25.494Z,22.10
2023-03-23T16:13:53.125Z,22.03
2023-03-23T16:16:45.799Z,21.67
2023-03-23T16:19:16.148Z,21.64
2023-03-23T16:21:43.116Z,21.81
2023-03-23T16:24:10.621Z,21.81
2023-03-23T16:26:40.335Z,21.30
2023-03-23T16:29:22.290Z,21.56
2023-03-23T16:31:55.922Z,21.53
2023-03-23T16:34:23.072Z,21.71
2023-03-23T16:36:49.900Z,21.33
2023-03-23T16:39:18.989Z,21.27
2023-03-23T16:41:46.060Z,21.18
2023-03-23T16:44:13.288Z,21.20
2023-03-23T16:46:40.357Z,21.07
2023-03-23T16:49:07.211Z,21.09
2023-03-23T16:51:34.091Z,21.14
2023-03-23T16:54:00.966Z,21.14
2023-03-23T16:56:27.943Z,21.16
2023-03-23T16:58:54.779Z,21.15
2023-03-23T17:01:21.677Z,20.87
2023-03-23T17:03:48.539Z,20.86
2023-03-23T17:06:16.122Z,20.80
2023-03-23T17:08:43.003Z,20.91
2023-03-23T17:11:11.387Z,20.92
2023-03-23T17:13:39.020Z,20.91
2023-03-23T17:16:06.917Z,20.87
2023-03-23T17:18:33.790Z,20.88
2023-03-23T17:21:00.671Z,20.86
2023-03-23T17:23:27.590Z,20.77
2023-03-23T17:25:54.549Z,20.68
2023-03-23T17:28:21.814Z,20.53
2023-03-23T17:30:49.015Z,20.63
2023-03-23T17:33:15.937Z,20.63
2023-03-23T17:35:46.116Z,20.60
2023-03-23T17:38:13.221Z,20.48
2023-03-23T17:40:40.085Z,20.46
2023-03-23T17:43:07.035Z,20.29
2023-03-23T17:45:34.062Z,20.18
2023-03-23T17:48:01.144Z,20.20
2023-03-23T17:50:28.098Z,20.11
2023-03-23T17:52:57.013Z,20.00
2023-03-23T17:55:24.066Z,20.05
2023-03-23T17:57:51.048Z,19.88
2023-03-23T18:00:18.655Z,19.63
2023-03-23T18:02:45.579Z,19.57
2023-03-23T18:05:12.869Z,19.45
2023-03-23T18:07:39.829Z,19.40
2023-03-23T18:10:12.384Z,19.22
2023-03-23T18:12:40.876Z,19.13
2023-03-23T18:15:09.084Z,19.18
2023-03-23T18:17:36.153Z,19.22
2023-03-23T18:20:04.779Z,19.16
2023-03-23T18:22:31.664Z,19.16
2023-03-23T18:24:58.808Z,19.11
2023-03-23T18:27:26.147Z,19.10
2023-03-23T18:29:53.027Z,19.06
2023-03-23T18:32:20.648Z,19.02
2023-03-23T18:34:48.619Z,19.08
2023-03-23T18:37:15.942Z,19.05
2023-03-23T18:39:42.919Z,19.02
2023-03-23T18:42:09.855Z,19.07
2023-03-23T18:44:37.221Z,19.11
2023-03-23T18:47:04.240Z,19.12
2023-03-23T18:49:33.496Z,19.15
2023-03-23T18:52:00.927Z,19.23
2023-03-23T18:54:28.949Z,19.23
2023-03-23T18:57:00.373Z,19.26
2023-03-23T18:59:30.488Z,19.16
2023-03-23T19:01:58.008Z,19.23
2023-03-23T19:04:25.447Z,19.14
2023-03-23T19:06:52.644Z,19.12
2023-03-23T19:09:19.586Z,19.02
2023-03-23T19:11:47.430Z,18.87
2023-03-23T19:14:14.583Z,18.90
2023-03-23T19:16:41.986Z,18.85
2023-03-23T19:19:09.165Z,18.78
2023-03-23T19:21:40.332Z,18.76
2023-03-23T19:24:08.265Z,18.75
2023-03-23T19:26:39.193Z,18.75
2023-03-23T19:31:39.002Z,18.82
2023-03-23T19:34:06.665Z,18.67
2023-03-23T19:36:33.620Z,18.80
2023-03-23T19:39:02.610Z,18.90
2023-03-23T19:41:31.120Z,18.88
2023-03-23T19:43:59.378Z,18.57
2023-03-23T19:46:29.046Z,18.95
2023-03-23T19:48:57.534Z,19.00
2023-03-23T19:51:24.637Z,18.92
2023-03-23T19:53:51.975Z,18.89
2023-03-23T19:56:24.082Z,18.86
2023-03-23T19:58:51.325Z,18.81
2023-03-23T20:01:18.910Z,18.76
2023-03-23T20:03:46.574Z,18.77
2023-03-23T20:06:15.375Z,18.74
2023-03-23T20:08:45.653Z,18.69
2023-03-23T20:11:17.019Z,18.71
2023-03-23T20:13:45.994Z,18.71
2023-03-23T20:16:12.882Z,18.68
2023-03-23T20:18:40.983Z,18.65
2023-03-23T20:21:12.221Z,18.64
2023-03-23T20:23:41.535Z,18.63
2023-03-23T20:26:15.851Z,18.56
2023-03-23T20:28:43.367Z,18.51
2023-03-23T20:31:26.701Z,18.47
2023-03-23T20:34:03.369Z,18.39
2023-03-23T20:36:38.279Z,18.37
2023-03-23T20:39:14.112Z,18.34
2023-03-23T20:41:43.403Z,18.40
2023-03-23T20:44:15.748Z,18.36
2023-03-23T20:46:48.339Z,18.37
2023-03-23T20:49:16.100Z,18.34
2023-03-23T20:51:45.004Z,18.32
2023-03-23T20:54:15.820Z,18.30
2023-03-23T20:56:47.676Z,18.24
2023-03-23T20:59:15.556Z,18.19
2023-03-23T21:01:43.563Z,18.22
2023-03-23T21:04:19.852Z,18.19
2023-03-23T21:06:51.884Z,18.16
2023-03-23T21:09:19.597Z,18.10
2023-03-23T21:11:47.146Z,18.08
2023-03-23T21:14:14.984Z,18.03
2023-03-23T21:16:42.623Z,18.02
2023-03-23T21:19:10.320Z,18.02
2023-03-23T21:21:42.255Z,17.97
2023-03-23T21:24:28.967Z,17.93
2023-03-23T21:26:59.419Z,17.84
2023-03-23T21:29:27.470Z,17.79
2023-03-23T21:32:07.781Z,17.77
2023-03-23T21:34:36.899Z,17.71
2023-03-23T21:37:03.971Z,17.68
2023-03-23T21:39:30.846Z,17.66
2023-03-23T21:41:59.301Z,17.64
2023-03-23T21:44:26.362Z,17.66
2023-03-23T21:46:54.523Z,17.58
2023-03-23T21:49:21.685Z,17.58
2023-03-23T21:51:49.472Z,17.59
2023-03-23T21:54:16.360Z,17.56
2023-03-23T21:56:43.344Z,17.58
2023-03-23T21:59:10.240Z,17.56
2023-03-23T22:01:37.479Z,17.54
2023-03-23T22:04:05.158Z,17.50
2023-03-23T22:06:34.344Z,17.46
2023-03-23T22:09:05.214Z,17.45
2023-03-23T22:11:32.790Z,17.46
2023-03-23T22:14:00.750Z,17.37
2023-03-23T22:16:28.424Z,17.38
2023-03-23T22:18:59.597Z,17.39
2023-03-23T22:21:29.096Z,17.41
2023-03-23T22:23:58.652Z,17.51
2023-03-23T22:26:27.719Z,17.51
2023-03-23T22:28:55.482Z,17.44
2023-03-23T22:31:29.473Z,17.41
2023-03-23T22:33:57.371Z,17.40
2023-03-23T22:36:26.723Z,17.22
2023-03-23T22:38:55.559Z,17.18
2023-03-23T22:41:35.741Z,17.19
2023-03-23T22:44:04.397Z,17.16
2023-03-23T22:46:31.729Z,17.21
2023-03-23T22:48:58.562Z,17.19
2023-03-23T22:51:25.723Z,17.26
2023-03-23T22:53:52.658Z,17.31
2023-03-23T22:56:20.371Z,17.33
2023-03-23T22:58:47.457Z,17.31
2023-03-23T23:01:21.518Z,17.36
2023-03-23T23:03:49.114Z,17.34
2023-03-23T23:06:18.010Z,17.33
2023-03-23T23:08:46.734Z,17.34
2023-03-23T23:11:16.603Z,17.35
2023-03-23T23:13:44.288Z,17.32
2023-03-23T23:16:13.072Z,17.30
2023-03-23T23:18:40.688Z,17.27
2023-03-23T23:21:14.285Z,17.23
2023-03-23T23:23:41.537Z,17.21
2023-03-23T23:26:09.421Z,17.10
2023-03-23T23:28:36.877Z,17.03
2023-03-23T23:31:04.206Z,16.92
2023-03-23T23:33:31.101Z,16.87
2023-03-23T23:35:58.468Z,16.80
2023-03-23T23:38:26.053Z,16.77
2023-03-23T23:40:52.986Z,16.72
2023-03-23T23:43:19.893Z,16.68
2023-03-23T23:45:46.792Z,16.60
2023-03-23T23:48:13.774Z,16.55
2023-03-23T23:50:40.869Z,16.51
2023-03-23T23:53:09.892Z,16.44
2023-03-23T23:55:39.304Z,16.43
2023-03-23T23:58:06.258Z,16.40
